sensor_id;sensor_type;location;lat;lon;timestamp;P1;durP1;ratioP1;P2;durP2;ratioP2
15106;SDS011;7654;45.308;-75.096;2023-05-14T00:00:32;0.30;;;0.30;;
15106;SDS011;7654;45.308;-75.096;2023-05-14T00:03:03;0.30;;;0.30;;
15106;SDS011;7654;45.308;-75.096;2023-05-14T00:05:35;0.30;;;0.30;;
15106;SDS011;7654;45.308;-75.096;2023-05-14T00:08:05;0.40;;;0.40;;
15106;SDS011;7654;45.308;-75.096;2023-05-14T00:10:36;0.40;;;0.40;;
15106;SDS011;7654;45.308;-75.096;2023-05-14T00:13:06;0.30;;;0.30;;
15106;SDS011;7654;45.308;-75.096;2023-05-14T00:15:37;0.30;;;0.30;;
15106;SDS011;7654;45.308;-75.096;2023-05-14T00:18:07;0.30;;;0.30;;
15106;SDS011;7654;45.308;-75.096;2023-05-14T00:20:40;0.30;;;0.30;;
15106;SDS011;7654;45.308;-75.096;2023-05-14T00:23:10;0.50;;;0.50;;
15106;SDS011;7654;45.308;-75.096;2023-05-14T00:25:40;0.30;;;0.30;;
15106;SDS011;7654;45.308;-75.096;2023-05-14T00:28:11;0.40;;;0.40;;
15106;SDS011;7654;45.308;-75.096;2023-05-14T00:30:41;0.30;;;0.30;;
15106;SDS011;7654;45.308;-75.096;2023-05-14T00:33:13;0.37;;;0.37;;
15106;SDS011;7654;45.308;-75.096;2023-05-14T00:35:45;0.40;;;0.40;;
15106;SDS011;7654;45.308;-75.096;2023-05-14T00:38:16;0.30;;;0.30;;
15106;SDS011;7654;45.308;-75.096;2023-05-14T00:40:47;0.40;;;0.40;;
15106;SDS011;7654;45.308;-75.096;2023-05-14T00:43:18;0.40;;;0.40;;
15106;SDS011;7654;45.308;-75.096;2023-05-14T00:45:49;0.40;;;0.40;;
15106;SDS011;7654;45.308;-75.096;2023-05-14T00:48:20;0.40;;;0.40;;
15106;SDS011;7654;45.308;-75.096;2023-05-14T00:50:52;0.30;;;0.30;;
15106;SDS011;7654;45.308;-75.096;2023-05-14T00:53:23;0.40;;;0.40;;
15106;SDS011;7654;45.308;-75.096;2023-05-14T00:55:53;0.40;;;0.40;;
15106;SDS011;7654;45.308;-75.096;2023-05-14T00:58:24;0.43;;;0.43;;
15106;SDS011;7654;45.308;-75.096;2023-05-14T01:00:56;0.40;;;0.40;;
15106;SDS011;7654;45.308;-75.096;2023-05-14T01:03:26;0.40;;;0.40;;
15106;SDS011;7654;45.308;-75.096;2023-05-14T01:06:02;0.40;;;0.40;;
15106;SDS011;7654;45.308;-75.096;2023-05-14T01:08:40;0.30;;;0.30;;
15106;SDS011;7654;45.308;-75.096;2023-05-14T01:11:20;0.40;;;0.40;;
15106;SDS011;7654;45.308;-75.096;2023-05-14T01:13:57;0.40;;;0.40;;
15106;SDS011;7654;45.308;-75.096;2023-05-14T01:16:32;0.40;;;0.40;;
15106;SDS011;7654;45.308;-75.096;2023-05-14T01:19:04;0.40;;;0.40;;
15106;SDS011;7654;45.308;-75.096;2023-05-14T01:21:41;0.40;;;0.40;;
15106;SDS011;7654;45.308;-75.096;2023-05-14T01:24:12;0.47;;;0.47;;
15106;SDS011;7654;45.308;-75.096;2023-05-14T01:26:43;0.40;;;0.40;;
15106;SDS011;7654;45.308;-75.096;2023-05-14T01:29:16;0.40;;;0.40;;
15106;SDS011;7654;45.308;-75.096;2023-05-14T01:31:50;0.40;;;0.40;;
15106;SDS011;7654;45.308;-75.096;2023-05-14T01:34:24;0.40;;;0.40;;
15106;SDS011;7654;45.308;-75.096;2023-05-14T01:36:58;0.50;;;0.50;;
15106;SDS011;7654;45.308;-75.096;2023-05-14T01:39:31;0.40;;;0.40;;
15106;SDS011;7654;45.308;-75.096;2023-05-14T01:42:04;0.40;;;0.40;;
15106;SDS011;7654;45.308;-75.096;2023-05-14T01:44:36;0.40;;;0.40;;
15106;SDS011;7654;45.308;-75.096;2023-05-14T01:47:06;0.47;;;0.47;;
15106;SDS011;7654;45.308;-75.096;2023-05-14T01:49:36;0.50;;;0.50;;
15106;SDS011;7654;45.308;-75.096;2023-05-14T01:52:08;0.50;;;0.50;;
15106;SDS011;7654;45.308;-75.096;2023-05-14T01:54:39;0.47;;;0.47;;
15106;SDS011;7654;45.308;-75.096;2023-05-14T01:57:10;0.43;;;0.43;;
15106;SDS011;7654;45.308;-75.096;2023-05-14T01:59:40;0.40;;;0.40;;
15106;SDS011;7654;45.308;-75.096;2023-05-14T02:02:11;0.40;;;0.40;;
15106;SDS011;7654;45.308;-75.096;2023-05-14T02:04:41;0.40;;;0.40;;
15106;SDS011;7654;45.308;-75.096;2023-05-14T02:07:13;0.40;;;0.40;;
15106;SDS011;7654;45.308;-75.096;2023-05-14T02:09:43;0.50;;;0.50;;
15106;SDS011;7654;45.308;-75.096;2023-05-14T02:12:13;0.40;;;0.40;;
15106;SDS011;7654;45.308;-75.096;2023-05-14T02:14:44;0.50;;;0.50;;
15106;SDS011;7654;45.308;-75.096;2023-05-14T02:17:14;0.43;;;0.43;;
15106;SDS011;7654;45.308;-75.096;2023-05-14T02:19:44;0.50;;;0.50;;
15106;SDS011;7654;45.308;-75.096;2023-05-14T02:22:16;0.50;;;0.50;;
15106;SDS011;7654;45.308;-75.096;2023-05-14T02:24:46;0.47;;;0.47;;
15106;SDS011;7654;45.308;-75.096;2023-05-14T02:27:17;0.40;;;0.40;;
15106;SDS011;7654;45.308;-75.096;2023-05-14T02:29:48;0.40;;;0.40;;
15106;SDS011;7654;45.308;-75.096;2023-05-14T02:32:18;0.40;;;0.40;;
15106;SDS011;7654;45.308;-75.096;2023-05-14T02:34:48;0.33;;;0.33;;
15106;SDS011;7654;45.308;-75.096;2023-05-14T02:37:20;0.30;;;0.30;;
15106;SDS011;7654;45.308;-75.096;2023-05-14T02:39:51;0.40;;;0.40;;
15106;SDS011;7654;45.308;-75.096;2023-05-14T02:42:21;0.40;;;0.40;;
15106;SDS011;7654;45.308;-75.096;2023-05-14T02:44:51;0.40;;;0.40;;
15106;SDS011;7654;45.308;-75.096;2023-05-14T02:47:22;0.40;;;0.40;;
15106;SDS011;7654;45.308;-75.096;2023-05-14T02:49:52;0.40;;;0.40;;
15106;SDS011;7654;45.308;-75.096;2023-05-14T02:52:24;0.50;;;0.50;;
15106;SDS011;7654;45.308;-75.096;2023-05-14T02:54:54;0.50;;;0.50;;
15106;SDS011;7654;45.308;-75.096;2023-05-14T02:57:24;0.50;;;0.50;;
15106;SDS011;7654;45.308;-75.096;2023-05-14T02:59:55;0.60;;;0.60;;
15106;SDS011;7654;45.308;-75.096;2023-05-14T03:02:26;0.40;;;0.40;;
15106;SDS011;7654;45.308;-75.096;2023-05-14T03:04:56;0.50;;;0.50;;
15106;SDS011;7654;45.308;-75.096;2023-05-14T03:07:28;0.47;;;0.47;;
15106;SDS011;7654;45.308;-75.096;2023-05-14T03:09:58;0.50;;;0.50;;
15106;SDS011;7654;45.308;-75.096;2023-05-14T03:12:29;0.50;;;0.50;;
15106;SDS011;7654;45.308;-75.096;2023-05-14T03:14:59;0.43;;;0.43;;
15106;SDS011;7654;45.308;-75.096;2023-05-14T03:17:29;0.50;;;0.50;;
15106;SDS011;7654;45.308;-75.096;2023-05-14T03:20:00;0.50;;;0.50;;
15106;SDS011;7654;45.308;-75.096;2023-05-14T03:22:32;0.50;;;0.50;;
15106;SDS011;7654;45.308;-75.096;2023-05-14T03:25:03;0.50;;;0.50;;
15106;SDS011;7654;45.308;-75.096;2023-05-14T03:27:33;0.50;;;0.50;;
15106;SDS011;7654;45.308;-75.096;2023-05-14T03:30:05;0.50;;;0.50;;
15106;SDS011;7654;45.308;-75.096;2023-05-14T03:32:37;0.50;;;0.50;;
15106;SDS011;7654;45.308;-75.096;2023-05-14T03:35:07;0.50;;;0.50;;
15106;SDS011;7654;45.308;-75.096;2023-05-14T03:37:39;0.40;;;0.40;;
15106;SDS011;7654;45.308;-75.096;2023-05-14T03:40:10;0.60;;;0.60;;
15106;SDS011;7654;45.308;-75.096;2023-05-14T03:42:41;0.50;;;0.50;;
15106;SDS011;7654;45.308;-75.096;2023-05-14T03:45:11;0.50;;;0.50;;
15106;SDS011;7654;45.308;-75.096;2023-05-14T03:47:41;0.50;;;0.50;;
15106;SDS011;7654;45.308;-75.096;2023-05-14T03:50:11;0.47;;;0.47;;
15106;SDS011;7654;45.308;-75.096;2023-05-14T03:52:44;0.50;;;0.50;;
15106;SDS011;7654;45.308;-75.096;2023-05-14T03:55:14;0.50;;;0.50;;
15106;SDS011;7654;45.308;-75.096;2023-05-14T03:57:45;0.40;;;0.40;;
15106;SDS011;7654;45.308;-75.096;2023-05-14T04:00:16;0.40;;;0.40;;
15106;SDS011;7654;45.308;-75.096;2023-05-14T04:02:46;0.50;;;0.50;;
15106;SDS011;7654;45.308;-75.096;2023-05-14T04:05:17;0.50;;;0.50;;
15106;SDS011;7654;45.308;-75.096;2023-05-14T04:07:49;0.40;;;0.40;;
15106;SDS011;7654;45.308;-75.096;2023-05-14T04:10:19;0.40;;;0.40;;
15106;SDS011;7654;45.308;-75.096;2023-05-14T04:12:50;0.50;;;0.50;;
15106;SDS011;7654;45.308;-75.096;2023-05-14T04:15:21;0.50;;;0.50;;
15106;SDS011;7654;45.308;-75.096;2023-05-14T04:17:51;0.43;;;0.43;;
15106;SDS011;7654;45.308;-75.096;2023-05-14T04:20:22;0.40;;;0.40;;
15106;SDS011;7654;45.308;-75.096;2023-05-14T04:22:54;0.47;;;0.47;;
15106;SDS011;7654;45.308;-75.096;2023-05-14T04:25:24;0.50;;;0.50;;
15106;SDS011;7654;45.308;-75.096;2023-05-14T04:27:54;0.50;;;0.50;;
15106;SDS011;7654;45.308;-75.096;2023-05-14T04:30:24;0.50;;;0.50;;
15106;SDS011;7654;45.308;-75.096;2023-05-14T04:32:55;0.47;;;0.47;;
15106;SDS011;7654;45.308;-75.096;2023-05-14T04:35:25;0.50;;;0.50;;
15106;SDS011;7654;45.308;-75.096;2023-05-14T04:37:57;0.50;;;0.50;;
15106;SDS011;7654;45.308;-75.096;2023-05-14T04:40:27;0.50;;;0.50;;
15106;SDS011;7654;45.308;-75.096;2023-05-14T04:42:58;0.50;;;0.50;;
15106;SDS011;7654;45.308;-75.096;2023-05-14T04:45:29;0.50;;;0.50;;
15106;SDS011;7654;45.308;-75.096;2023-05-14T04:48:01;0.60;;;0.60;;
15106;SDS011;7654;45.308;-75.096;2023-05-14T04:50:31;0.50;;;0.50;;
15106;SDS011;7654;45.308;-75.096;2023-05-14T04:53:03;0.50;;;0.50;;
15106;SDS011;7654;45.308;-75.096;2023-05-14T04:55:34;0.50;;;0.50;;
15106;SDS011;7654;45.308;-75.096;2023-05-14T04:58:04;0.50;;;0.50;;
15106;SDS011;7654;45.308;-75.096;2023-05-14T05:00:43;0.60;;;0.60;;
15106;SDS011;7654;45.308;-75.096;2023-05-14T05:03:14;0.50;;;0.50;;
15106;SDS011;7654;45.308;-75.096;2023-05-14T05:05:44;0.57;;;0.57;;
15106;SDS011;7654;45.308;-75.096;2023-05-14T05:08:16;0.40;;;0.40;;
15106;SDS011;7654;45.308;-75.096;2023-05-14T05:10:46;0.60;;;0.60;;
15106;SDS011;7654;45.308;-75.096;2023-05-14T05:13:17;0.50;;;0.50;;
15106;SDS011;7654;45.308;-75.096;2023-05-14T05:15:47;0.50;;;0.50;;
15106;SDS011;7654;45.308;-75.096;2023-05-14T05:18:17;0.53;;;0.53;;
15106;SDS011;7654;45.308;-75.096;2023-05-14T05:20:48;0.50;;;0.50;;
15106;SDS011;7654;45.308;-75.096;2023-05-14T05:23:20;0.50;;;0.50;;
15106;SDS011;7654;45.308;-75.096;2023-05-14T05:25:50;0.50;;;0.50;;
15106;SDS011;7654;45.308;-75.096;2023-05-14T05:28:20;0.50;;;0.50;;
15106;SDS011;7654;45.308;-75.096;2023-05-14T05:30:50;0.50;;;0.50;;
15106;SDS011;7654;45.308;-75.096;2023-05-14T05:33:21;0.50;;;0.50;;
15106;SDS011;7654;45.308;-75.096;2023-05-14T05:35:51;0.50;;;0.50;;
15106;SDS011;7654;45.308;-75.096;2023-05-14T05:38:24;0.60;;;0.60;;
15106;SDS011;7654;45.308;-75.096;2023-05-14T05:40:54;0.60;;;0.60;;
15106;SDS011;7654;45.308;-75.096;2023-05-14T05:43:24;0.50;;;0.50;;
15106;SDS011;7654;45.308;-75.096;2023-05-14T05:45:55;0.50;;;0.50;;
15106;SDS011;7654;45.308;-75.096;2023-05-14T05:48:25;0.50;;;0.50;;
15106;SDS011;7654;45.308;-75.096;2023-05-14T05:50:56;0.50;;;0.50;;
15106;SDS011;7654;45.308;-75.096;2023-05-14T05:53:28;0.60;;;0.60;;
15106;SDS011;7654;45.308;-75.096;2023-05-14T05:55:58;0.50;;;0.50;;
15106;SDS011;7654;45.308;-75.096;2023-05-14T05:58:29;0.50;;;0.50;;
15106;SDS011;7654;45.308;-75.096;2023-05-14T06:00:59;0.50;;;0.50;;
15106;SDS011;7654;45.308;-75.096;2023-05-14T06:03:30;0.50;;;0.50;;
15106;SDS011;7654;45.308;-75.096;2023-05-14T06:06:00;0.50;;;0.50;;
15106;SDS011;7654;45.308;-75.096;2023-05-14T06:08:32;0.50;;;0.50;;
15106;SDS011;7654;45.308;-75.096;2023-05-14T06:11:03;0.50;;;0.50;;
15106;SDS011;7654;45.308;-75.096;2023-05-14T06:13:33;0.50;;;0.50;;
15106;SDS011;7654;45.308;-75.096;2023-05-14T06:16:03;0.50;;;0.50;;
15106;SDS011;7654;45.308;-75.096;2023-05-14T06:18:34;0.50;;;0.50;;
15106;SDS011;7654;45.308;-75.096;2023-05-14T06:21:04;0.60;;;0.60;;
15106;SDS011;7654;45.308;-75.096;2023-05-14T06:23:36;0.60;;;0.60;;
15106;SDS011;7654;45.308;-75.096;2023-05-14T06:26:07;0.40;;;0.40;;
15106;SDS011;7654;45.308;-75.096;2023-05-14T06:28:38;0.50;;;0.50;;
15106;SDS011;7654;45.308;-75.096;2023-05-14T06:31:08;0.60;;;0.60;;
15106;SDS011;7654;45.308;-75.096;2023-05-14T06:33:38;0.53;;;0.53;;
15106;SDS011;7654;45.308;-75.096;2023-05-14T06:36:08;0.50;;;0.50;;
15106;SDS011;7654;45.308;-75.096;2023-05-14T06:38:41;0.53;;;0.53;;
15106;SDS011;7654;45.308;-75.096;2023-05-14T06:41:11;0.50;;;0.50;;
15106;SDS011;7654;45.308;-75.096;2023-05-14T06:43:41;0.50;;;0.50;;
15106;SDS011;7654;45.308;-75.096;2023-05-14T06:46:11;0.50;;;0.50;;
15106;SDS011;7654;45.308;-75.096;2023-05-14T06:48:42;0.50;;;0.50;;
15106;SDS011;7654;45.308;-75.096;2023-05-14T06:51:12;0.60;;;0.60;;
15106;SDS011;7654;45.308;-75.096;2023-05-14T06:53:44;0.50;;;0.50;;
15106;SDS011;7654;45.308;-75.096;2023-05-14T06:56:15;0.60;;;0.60;;
15106;SDS011;7654;45.308;-75.096;2023-05-14T06:58:45;0.50;;;0.50;;
15106;SDS011;7654;45.308;-75.096;2023-05-14T07:01:15;0.50;;;0.50;;
15106;SDS011;7654;45.308;-75.096;2023-05-14T07:03:46;0.50;;;0.50;;
15106;SDS011;7654;45.308;-75.096;2023-05-14T07:06:16;0.50;;;0.50;;
15106;SDS011;7654;45.308;-75.096;2023-05-14T07:08:48;0.60;;;0.60;;
15106;SDS011;7654;45.308;-75.096;2023-05-14T07:11:19;0.50;;;0.50;;
15106;SDS011;7654;45.308;-75.096;2023-05-14T07:13:49;0.57;;;0.57;;
15106;SDS011;7654;45.308;-75.096;2023-05-14T07:16:20;0.60;;;0.60;;
15106;SDS011;7654;45.308;-75.096;2023-05-14T07:18:50;0.50;;;0.50;;
15106;SDS011;7654;45.308;-75.096;2023-05-14T07:21:21;0.50;;;0.50;;
15106;SDS011;7654;45.308;-75.096;2023-05-14T07:23:53;0.53;;;0.53;;
15106;SDS011;7654;45.308;-75.096;2023-05-14T07:26:23;0.50;;;0.50;;
15106;SDS011;7654;45.308;-75.096;2023-05-14T07:28:53;0.50;;;0.50;;
15106;SDS011;7654;45.308;-75.096;2023-05-14T07:31:24;0.50;;;0.50;;
15106;SDS011;7654;45.308;-75.096;2023-05-14T07:33:55;0.50;;;0.50;;
15106;SDS011;7654;45.308;-75.096;2023-05-14T07:36:25;0.57;;;0.57;;
15106;SDS011;7654;45.308;-75.096;2023-05-14T07:38:57;0.53;;;0.53;;
15106;SDS011;7654;45.308;-75.096;2023-05-14T07:41:28;0.60;;;0.60;;
15106;SDS011;7654;45.308;-75.096;2023-05-14T07:43:58;0.50;;;0.50;;
15106;SDS011;7654;45.308;-75.096;2023-05-14T07:46:28;0.50;;;0.50;;
15106;SDS011;7654;45.308;-75.096;2023-05-14T07:48:59;0.50;;;0.50;;
15106;SDS011;7654;45.308;-75.096;2023-05-14T07:51:29;0.60;;;0.60;;
15106;SDS011;7654;45.308;-75.096;2023-05-14T07:54:01;0.50;;;0.50;;
15106;SDS011;7654;45.308;-75.096;2023-05-14T07:56:32;0.40;;;0.40;;
15106;SDS011;7654;45.308;-75.096;2023-05-14T07:59:02;0.50;;;0.50;;
15106;SDS011;7654;45.308;-75.096;2023-05-14T08:01:33;0.53;;;0.53;;
15106;SDS011;7654;45.308;-75.096;2023-05-14T08:04:06;0.50;;;0.50;;
15106;SDS011;7654;45.308;-75.096;2023-05-14T08:06:38;0.53;;;0.53;;
15106;SDS011;7654;45.308;-75.096;2023-05-14T08:09:10;0.60;;;0.60;;
15106;SDS011;7654;45.308;-75.096;2023-05-14T08:11:40;0.50;;;0.50;;
15106;SDS011;7654;45.308;-75.096;2023-05-14T08:14:10;0.60;;;0.60;;
15106;SDS011;7654;45.308;-75.096;2023-05-14T08:16:40;0.53;;;0.53;;
15106;SDS011;7654;45.308;-75.096;2023-05-14T08:19:11;0.50;;;0.50;;
15106;SDS011;7654;45.308;-75.096;2023-05-14T08:21:42;0.50;;;0.50;;
15106;SDS011;7654;45.308;-75.096;2023-05-14T08:24:14;0.50;;;0.50;;
15106;SDS011;7654;45.308;-75.096;2023-05-14T08:26:44;0.50;;;0.50;;
15106;SDS011;7654;45.308;-75.096;2023-05-14T08:29:14;0.50;;;0.50;;
15106;SDS011;7654;45.308;-75.096;2023-05-14T08:31:45;0.50;;;0.50;;
15106;SDS011;7654;45.308;-75.096;2023-05-14T08:34:15;0.60;;;0.60;;
15106;SDS011;7654;45.308;-75.096;2023-05-14T08:36:45;0.53;;;0.53;;
15106;SDS011;7654;45.308;-75.096;2023-05-14T08:39:17;0.60;;;0.60;;
15106;SDS011;7654;45.308;-75.096;2023-05-14T08:41:47;0.50;;;0.50;;
15106;SDS011;7654;45.308;-75.096;2023-05-14T08:44:18;0.50;;;0.50;;
15106;SDS011;7654;45.308;-75.096;2023-05-14T08:46:52;0.50;;;0.50;;
15106;SDS011;7654;45.308;-75.096;2023-05-14T08:49:27;0.50;;;0.50;;
15106;SDS011;7654;45.308;-75.096;2023-05-14T08:52:08;0.50;;;0.50;;
15106;SDS011;7654;45.308;-75.096;2023-05-14T08:54:40;0.57;;;0.57;;
15106;SDS011;7654;45.308;-75.096;2023-05-14T08:57:11;0.57;;;0.57;;
15106;SDS011;7654;45.308;-75.096;2023-05-14T08:59:42;0.60;;;0.60;;
15106;SDS011;7654;45.308;-75.096;2023-05-14T09:02:13;0.60;;;0.60;;
15106;SDS011;7654;45.308;-75.096;2023-05-14T09:04:44;0.53;;;0.53;;
15106;SDS011;7654;45.308;-75.096;2023-05-14T09:07:15;0.53;;;0.53;;
15106;SDS011;7654;45.308;-75.096;2023-05-14T09:09:47;0.60;;;0.60;;
15106;SDS011;7654;45.308;-75.096;2023-05-14T09:12:18;0.60;;;0.60;;
15106;SDS011;7654;45.308;-75.096;2023-05-14T09:14:49;0.50;;;0.50;;
15106;SDS011;7654;45.308;-75.096;2023-05-14T09:17:20;0.50;;;0.50;;
15106;SDS011;7654;45.308;-75.096;2023-05-14T09:19:53;0.60;;;0.60;;
15106;SDS011;7654;45.308;-75.096;2023-05-14T09:22:23;0.50;;;0.50;;
15106;SDS011;7654;45.308;-75.096;2023-05-14T09:25:02;0.60;;;0.60;;
15106;SDS011;7654;45.308;-75.096;2023-05-14T09:27:34;0.57;;;0.57;;
15106;SDS011;7654;45.308;-75.096;2023-05-14T09:30:06;0.60;;;0.60;;
15106;SDS011;7654;45.308;-75.096;2023-05-14T09:32:38;0.50;;;0.50;;
15106;SDS011;7654;45.308;-75.096;2023-05-14T09:35:13;0.60;;;0.60;;
15106;SDS011;7654;45.308;-75.096;2023-05-14T09:37:45;0.50;;;0.50;;
15106;SDS011;7654;45.308;-75.096;2023-05-14T09:40:19;0.60;;;0.60;;
15106;SDS011;7654;45.308;-75.096;2023-05-14T09:42:50;0.50;;;0.50;;
15106;SDS011;7654;45.308;-75.096;2023-05-14T09:45:21;0.60;;;0.60;;
15106;SDS011;7654;45.308;-75.096;2023-05-14T09:47:51;0.53;;;0.53;;
15106;SDS011;7654;45.308;-75.096;2023-05-14T09:50:22;0.60;;;0.60;;
15106;SDS011;7654;45.308;-75.096;2023-05-14T09:52:53;0.60;;;0.60;;
15106;SDS011;7654;45.308;-75.096;2023-05-14T09:55:26;0.50;;;0.50;;
15106;SDS011;7654;45.308;-75.096;2023-05-14T09:57:57;0.60;;;0.60;;
15106;SDS011;7654;45.308;-75.096;2023-05-14T10:00:27;0.60;;;0.60;;
15106;SDS011;7654;45.308;-75.096;2023-05-14T10:02:59;0.60;;;0.60;;
15106;SDS011;7654;45.308;-75.096;2023-05-14T10:05:35;0.60;;;0.60;;
15106;SDS011;7654;45.308;-75.096;2023-05-14T10:08:08;0.60;;;0.60;;
15106;SDS011;7654;45.308;-75.096;2023-05-14T10:10:44;0.50;;;0.50;;
15106;SDS011;7654;45.308;-75.096;2023-05-14T10:13:14;0.60;;;0.60;;
15106;SDS011;7654;45.308;-75.096;2023-05-14T10:15:50;0.57;;;0.57;;
15106;SDS011;7654;45.308;-75.096;2023-05-14T10:18:23;0.60;;;0.60;;
15106;SDS011;7654;45.308;-75.096;2023-05-14T10:20:56;0.50;;;0.50;;
15106;SDS011;7654;45.308;-75.096;2023-05-14T10:23:32;0.60;;;0.60;;
15106;SDS011;7654;45.308;-75.096;2023-05-14T10:26:05;0.50;;;0.50;;
15106;SDS011;7654;45.308;-75.096;2023-05-14T10:28:37;0.60;;;0.60;;
15106;SDS011;7654;45.308;-75.096;2023-05-14T10:31:08;0.60;;;0.60;;
15106;SDS011;7654;45.308;-75.096;2023-05-14T10:33:45;0.60;;;0.60;;
15106;SDS011;7654;45.308;-75.096;2023-05-14T10:36:17;0.63;;;0.63;;
15106;SDS011;7654;45.308;-75.096;2023-05-14T10:38:48;0.70;;;0.70;;
15106;SDS011;7654;45.308;-75.096;2023-05-14T10:41:25;0.60;;;0.60;;
15106;SDS011;7654;45.308;-75.096;2023-05-14T10:43:56;0.60;;;0.60;;
15106;SDS011;7654;45.308;-75.096;2023-05-14T10:46:27;0.60;;;0.60;;
15106;SDS011;7654;45.308;-75.096;2023-05-14T10:48:57;0.50;;;0.50;;
15106;SDS011;7654;45.308;-75.096;2023-05-14T10:51:28;0.60;;;0.60;;
15106;SDS011;7654;45.308;-75.096;2023-05-14T10:53:59;0.60;;;0.60;;
15106;SDS011;7654;45.308;-75.096;2023-05-14T10:56:32;0.57;;;0.57;;
15106;SDS011;7654;45.308;-75.096;2023-05-14T10:59:02;0.60;;;0.60;;
15106;SDS011;7654;45.308;-75.096;2023-05-14T11:01:36;0.60;;;0.60;;
15106;SDS011;7654;45.308;-75.096;2023-05-14T11:04:09;0.60;;;0.60;;
15106;SDS011;7654;45.308;-75.096;2023-05-14T11:06:47;0.50;;;0.50;;
15106;SDS011;7654;45.308;-75.096;2023-05-14T11:09:20;0.60;;;0.60;;
15106;SDS011;7654;45.308;-75.096;2023-05-14T11:11:52;0.60;;;0.60;;
15106;SDS011;7654;45.308;-75.096;2023-05-14T11:14:23;0.60;;;0.60;;
15106;SDS011;7654;45.308;-75.096;2023-05-14T11:16:54;0.50;;;0.50;;
15106;SDS011;7654;45.308;-75.096;2023-05-14T11:19:25;0.60;;;0.60;;
15106;SDS011;7654;45.308;-75.096;2023-05-14T11:21:55;0.50;;;0.50;;
15106;SDS011;7654;45.308;-75.096;2023-05-14T11:24:27;0.60;;;0.60;;
15106;SDS011;7654;45.308;-75.096;2023-05-14T11:26:59;0.50;;;0.50;;
15106;SDS011;7654;45.308;-75.096;2023-05-14T11:29:29;0.60;;;0.60;;
15106;SDS011;7654;45.308;-75.096;2023-05-14T11:32:00;0.50;;;0.50;;
15106;SDS011;7654;45.308;-75.096;2023-05-14T11:34:33;0.50;;;0.50;;
15106;SDS011;7654;45.308;-75.096;2023-05-14T11:37:03;0.50;;;0.50;;
15106;SDS011;7654;45.308;-75.096;2023-05-14T11:39:34;0.50;;;0.50;;
15106;SDS011;7654;45.308;-75.096;2023-05-14T11:42:10;0.50;;;0.50;;
15106;SDS011;7654;45.308;-75.096;2023-05-14T11:44:43;0.60;;;0.60;;
15106;SDS011;7654;45.308;-75.096;2023-05-14T11:47:15;0.50;;;0.50;;
15106;SDS011;7654;45.308;-75.096;2023-05-14T11:49:47;0.50;;;0.50;;
15106;SDS011;7654;45.308;-75.096;2023-05-14T11:52:17;0.50;;;0.50;;
15106;SDS011;7654;45.308;-75.096;2023-05-14T11:54:48;0.50;;;0.50;;
15106;SDS011;7654;45.308;-75.096;2023-05-14T11:57:20;0.50;;;0.50;;
15106;SDS011;7654;45.308;-75.096;2023-05-14T11:59:54;0.50;;;0.50;;
15106;SDS011;7654;45.308;-75.096;2023-05-14T12:02:26;0.40;;;0.40;;
15106;SDS011;7654;45.308;-75.096;2023-05-14T12:04:58;0.50;;;0.50;;
15106;SDS011;7654;45.308;-75.096;2023-05-14T12:07:29;0.50;;;0.50;;
15106;SDS011;7654;45.308;-75.096;2023-05-14T12:09:59;0.50;;;0.50;;
15106;SDS011;7654;45.308;-75.096;2023-05-14T12:12:35;0.57;;;0.57;;
15106;SDS011;7654;45.308;-75.096;2023-05-14T12:15:09;0.50;;;0.50;;
15106;SDS011;7654;45.308;-75.096;2023-05-14T12:17:40;0.50;;;0.50;;
15106;SDS011;7654;45.308;-75.096;2023-05-14T12:20:11;0.50;;;0.50;;
15106;SDS011;7654;45.308;-75.096;2023-05-14T12:22:41;0.50;;;0.50;;
15106;SDS011;7654;45.308;-75.096;2023-05-14T12:25:12;0.50;;;0.50;;
15106;SDS011;7654;45.308;-75.096;2023-05-14T12:27:44;0.50;;;0.50;;
15106;SDS011;7654;45.308;-75.096;2023-05-14T12:30:14;0.40;;;0.40;;
15106;SDS011;7654;45.308;-75.096;2023-05-14T12:32:53;0.50;;;0.50;;
15106;SDS011;7654;45.308;-75.096;2023-05-14T12:35:23;0.50;;;0.50;;
15106;SDS011;7654;45.308;-75.096;2023-05-14T12:37:53;0.50;;;0.50;;
15106;SDS011;7654;45.308;-75.096;2023-05-14T12:40:23;0.50;;;0.50;;
15106;SDS011;7654;45.308;-75.096;2023-05-14T12:42:55;0.57;;;0.57;;
15106;SDS011;7654;45.308;-75.096;2023-05-14T12:45:26;0.50;;;0.50;;
15106;SDS011;7654;45.308;-75.096;2023-05-14T12:47:59;0.50;;;0.50;;
15106;SDS011;7654;45.308;-75.096;2023-05-14T12:50:29;0.50;;;0.50;;
15106;SDS011;7654;45.308;-75.096;2023-05-14T12:52:59;0.40;;;0.40;;
15106;SDS011;7654;45.308;-75.096;2023-05-14T12:55:30;0.43;;;0.43;;
15106;SDS011;7654;45.308;-75.096;2023-05-14T12:58:03;0.50;;;0.50;;
15106;SDS011;7654;45.308;-75.096;2023-05-14T13:00:34;0.47;;;0.47;;
15106;SDS011;7654;45.308;-75.096;2023-05-14T13:03:04;0.50;;;0.50;;
15106;SDS011;7654;45.308;-75.096;2023-05-14T13:05:35;0.40;;;0.40;;
15106;SDS011;7654;45.308;-75.096;2023-05-14T13:08:05;0.50;;;0.50;;
15106;SDS011;7654;45.308;-75.096;2023-05-14T13:10:37;0.50;;;0.50;;
15106;SDS011;7654;45.308;-75.096;2023-05-14T13:15:44;0.50;;;0.50;;
15106;SDS011;7654;45.308;-75.096;2023-05-14T13:18:14;0.60;;;0.60;;
15106;SDS011;7654;45.308;-75.096;2023-05-14T13:20:45;0.50;;;0.50;;
15106;SDS011;7654;45.308;-75.096;2023-05-14T13:23:16;0.53;;;0.53;;
15106;SDS011;7654;45.308;-75.096;2023-05-14T13:25:47;0.50;;;0.50;;
15106;SDS011;7654;45.308;-75.096;2023-05-14T13:28:19;0.40;;;0.40;;
15106;SDS011;7654;45.308;-75.096;2023-05-14T13:31:02;0.40;;;0.40;;
15106;SDS011;7654;45.308;-75.096;2023-05-14T13:33:34;0.40;;;0.40;;
15106;SDS011;7654;45.308;-75.096;2023-05-14T13:36:06;0.50;;;0.50;;
15106;SDS011;7654;45.308;-75.096;2023-05-14T13:38:38;0.40;;;0.40;;
15106;SDS011;7654;45.308;-75.096;2023-05-14T13:41:08;0.50;;;0.50;;
15106;SDS011;7654;45.308;-75.096;2023-05-14T13:43:40;0.47;;;0.47;;
15106;SDS011;7654;45.308;-75.096;2023-05-14T13:46:10;0.40;;;0.40;;
15106;SDS011;7654;45.308;-75.096;2023-05-14T13:48:41;0.40;;;0.40;;
15106;SDS011;7654;45.308;-75.096;2023-05-14T13:51:11;0.50;;;0.50;;
15106;SDS011;7654;45.308;-75.096;2023-05-14T13:53:42;0.50;;;0.50;;
15106;SDS011;7654;45.308;-75.096;2023-05-14T13:56:12;0.40;;;0.40;;
15106;SDS011;7654;45.308;-75.096;2023-05-14T13:58:44;0.50;;;0.50;;
15106;SDS011;7654;45.308;-75.096;2023-05-14T14:01:15;0.50;;;0.50;;
15106;SDS011;7654;45.308;-75.096;2023-05-14T14:03:46;0.40;;;0.40;;
15106;SDS011;7654;45.308;-75.096;2023-05-14T14:06:16;0.40;;;0.40;;
15106;SDS011;7654;45.308;-75.096;2023-05-14T14:08:47;0.40;;;0.40;;
15106;SDS011;7654;45.308;-75.096;2023-05-14T14:11:17;0.50;;;0.50;;
15106;SDS011;7654;45.308;-75.096;2023-05-14T14:13:49;0.47;;;0.47;;
15106;SDS011;7654;45.308;-75.096;2023-05-14T14:16:20;0.40;;;0.40;;
15106;SDS011;7654;45.308;-75.096;2023-05-14T14:18:51;0.40;;;0.40;;
15106;SDS011;7654;45.308;-75.096;2023-05-14T14:21:21;0.50;;;0.50;;
15106;SDS011;7654;45.308;-75.096;2023-05-14T14:23:51;0.40;;;0.40;;
15106;SDS011;7654;45.308;-75.096;2023-05-14T14:26:22;0.40;;;0.40;;
15106;SDS011;7654;45.308;-75.096;2023-05-14T14:28:55;0.40;;;0.40;;
15106;SDS011;7654;45.308;-75.096;2023-05-14T14:31:25;0.40;;;0.40;;
15106;SDS011;7654;45.308;-75.096;2023-05-14T14:33:56;0.40;;;0.40;;
15106;SDS011;7654;45.308;-75.096;2023-05-14T14:36:26;0.37;;;0.37;;
15106;SDS011;7654;45.308;-75.096;2023-05-14T14:38:57;0.40;;;0.40;;
15106;SDS011;7654;45.308;-75.096;2023-05-14T14:41:27;0.40;;;0.40;;
15106;SDS011;7654;45.308;-75.096;2023-05-14T14:43:59;0.40;;;0.40;;
15106;SDS011;7654;45.308;-75.096;2023-05-14T14:46:29;0.40;;;0.40;;
15106;SDS011;7654;45.308;-75.096;2023-05-14T14:49:00;0.40;;;0.40;;
15106;SDS011;7654;45.308;-75.096;2023-05-14T14:51:30;0.40;;;0.40;;
15106;SDS011;7654;45.308;-75.096;2023-05-14T14:54:00;0.40;;;0.40;;
15106;SDS011;7654;45.308;-75.096;2023-05-14T14:56:32;0.40;;;0.40;;
15106;SDS011;7654;45.308;-75.096;2023-05-14T14:59:05;0.43;;;0.43;;